Heroic Leader — C6ZD2 — position and weather

sailwx.info

Track history (hours):
 
Tides and Currents Weather Stations Pressure Air Temp Water Temp Dewpoint Dewpoint Depression Visibility Wind Speed Wind Dir Waves Ship Positions

Heroic Leader

Last reported at 2016-Jun-27 07:30 UTC. Time now 2016-Jun-29 20:07 UTC.
Position N 34°58' E 139°26'.

Length 200 m; draft 8.3 m.

Type: Cargo ship. MMSI: 311052700.

Date/timePositionNaut miles runAvg speedWind from/ knotsBaromVisibWave heightAir tempDewpointWater temp
2016-Jun-27 07:30N 34°58' E 139°26'1415.2
2016-Jun-27 06:33N 35°06' E 139°41'1211.7
2016-Jun-27 05:33N 35°17' E 139°45'1211.9
2016-Jun-27 04:33N 35°28' E 139°42'1 0.7
2016-Jun-27 03:33N 35°28' E 139°41'0 0.0
2016-Jun-27 02:33N 35°28' E 139°41'0 0.0
2016-Jun-27 01:34N 35°28' E 139°41'0 0.0
2016-Jun-27 00:33N 35°28' E 139°41'0 0.0
2016-Jun-26 23:34N 35°28' E 139°41'0 0.1
2016-Jun-26 22:33N 35°28' E 139°41'6 5.7
2016-Jun-26 21:33N 35°25' E 139°46'1111.2
2016-Jun-26 20:33N 35°13' E 139°47'9 9.0
2016-Jun-26 19:33N 35°04' E 139°45'9 9.4
2016-Jun-26 18:33N 34°55' E 139°42'12 9.7
2016-Jun-26 17:18N 34°50' E 139°56'1010.4
2016-Jun-26 16:23N 34°54' E 140°07'1011.9
2016-Jun-26 15:33N 34°60' E 140°17'1312.6
2016-Jun-26 14:33N 35°07' E 140°29'1212.1
2016-Jun-26 13:33N 35°15' E 140°40'1312.6
2016-Jun-26 12:33N 35°25' E 140°49'1313.4
2016-Jun-26 11:33N 35°36' E 140°59'1313.1
2016-Jun-26 10:33N 35°49' E 140°58'1413.5
2016-Jun-26 09:33N 36°02' E 140°54'1913.7
2016-Jun-26 08:09N 36°21' E 140°48'9 0.7
2016-Jun-25 19:13N 36°30' E 140°52'  
Track history (hours):
 
Tides and Currents Weather Stations Pressure Air Temp Water Temp Dewpoint Dewpoint Depression Visibility Wind Speed Wind Dir Waves Ship Positions

Heroic Leader

Last reported at 2016-Jun-27 07:30 UTC. Time now 2016-Jun-29 20:07 UTC.
Position N 34°58' E 139°26'.

Length 200 m; draft 8.3 m.

Type: Cargo ship. MMSI: 311052700.

Date/timePositionNaut miles runAvg speedWind from/ knotsBaromVisibWave heightAir tempDewpointWater temp
2016-Jun-27 07:30N 34°58' E 139°26'1415.2
2016-Jun-27 06:33N 35°06' E 139°41'1211.7
2016-Jun-27 05:33N 35°17' E 139°45'1211.9
2016-Jun-27 04:33N 35°28' E 139°42'1 0.7
2016-Jun-27 03:33N 35°28' E 139°41'0 0.0
2016-Jun-27 02:33N 35°28' E 139°41'0 0.0
2016-Jun-27 01:34N 35°28' E 139°41'0 0.0
2016-Jun-27 00:33N 35°28' E 139°41'0 0.0
2016-Jun-26 23:34N 35°28' E 139°41'0 0.1
2016-Jun-26 22:33N 35°28' E 139°41'6 5.7
2016-Jun-26 21:33N 35°25' E 139°46'1111.2
2016-Jun-26 20:33N 35°13' E 139°47'9 9.0
2016-Jun-26 19:33N 35°04' E 139°45'9 9.4
2016-Jun-26 18:33N 34°55' E 139°42'12 9.7
2016-Jun-26 17:18N 34°50' E 139°56'1010.4
2016-Jun-26 16:23N 34°54' E 140°07'1011.9
2016-Jun-26 15:33N 34°60' E 140°17'1312.6
2016-Jun-26 14:33N 35°07' E 140°29'1212.1
2016-Jun-26 13:33N 35°15' E 140°40'1312.6
2016-Jun-26 12:33N 35°25' E 140°49'1313.4
2016-Jun-26 11:33N 35°36' E 140°59'1313.1
2016-Jun-26 10:33N 35°49' E 140°58'1413.5
2016-Jun-26 09:33N 36°02' E 140°54'1913.7
2016-Jun-26 08:09N 36°21' E 140°48'9 0.7
2016-Jun-25 19:13N 36°30' E 140°52'  

Dump ship's entire track history